Latest Coastal Weather Observations for Coolangatta

IDQ60701

Issued at 12:12 am EST Tuesday 31 March 2015 (issued every 10 minutes, with the page automatically refreshed every 10 minutes)

About coastal observations | Map of coastal stations | Coastal observations for QLD | Marine services | Other Formats
Station Details ID: 040717 Name: COOLANGATTA Lat: -28.17 Lon: 153.51 Height: 4.0 m
Data from the previous 72 hours. | See also: Recent months at Coolangatta
Date/Time
EST
Temp

°C
Wind Pressure Rain
since 9am
mm
Weather Cloud Vis
km
Sea
Height
m
Swell
Dir
 
Speed
knots
Gust
knots
hPa Trend Height
m
Period
s
Dir
30/11:30pm 18.5 WSW 3 6 1023.1 - 0.0 - - 10 - - - -
30/11:00pm 18.6 S 3 4 1023.2 - 0.0 - - 10 - - - -
30/10:30pm 18.6 SSW 1 4 1023.4 - 0.0 - Partly cloudy 10 - - - -
30/10:00pm 19.0 SW 4 5 1023.7 - 0.0 - Partly cloudy 10 - - - -
30/09:30pm 19.0 WSW 2 4 1023.8 - 0.0 - - 10 - - - -
30/09:00pm 19.2 SSW 2 4 1023.8 - 0.0 - Mostly clear 10 - - - -
30/08:30pm 19.8 SSW 4 5 1023.8 - 0.0 - - 10 - - - -
30/08:00pm 19.8 WSW 6 7 1023.6 - 0.0 - - 10 - - - -
30/07:30pm 20.2 WSW 6 7 1023.3 - 0.0 - - 10 - - - -
30/07:00pm 20.6 WSW 4 5 1023.0 - 0.0 - - 10 - - - -
30/06:30pm 22.2 ESE 5 7 1022.6 - 0.0 - - 10 - - - -
30/06:00pm 23.1 E 5 7 1022.4 - 0.0 - Cloudy 10 - - - -
30/05:30pm 23.9 E 7 9 1022.0 - 0.0 - - 10 - - - -
30/05:00pm 24.2 ENE 6 8 1022.0 - 0.0 - - 10 - - - -
30/04:30pm 24.6 ENE 8 10 1021.5 - 0.0 - - 10 - - - -
30/04:00pm 24.8 ENE 7 9 1021.3 - 0.0 - - 10 - - - -
30/03:30pm 24.9 NE 6 9 1021.2 - 0.0 - - 10 - - - -
30/03:00pm 24.9 NNE 7 9 1021.5 - 0.0 - Cloudy 10 - - - -
30/02:30pm 25.7 NE 7 10 1021.5 - 0.0 - - 10 - - - -
30/02:00pm 25.2 NE 8 11 1021.4 - 0.0 - Partly cloudy 10 - - - -
30/01:30pm 25.3 NE 9 12 1021.5 - 0.0 - - 10 - - - -
30/01:00pm 25.2 NE 9 12 1022.0 - 0.0 - - 10 - - - -
30/12:30pm 25.7 NE 9 12 1022.4 - 0.0 - - 10 - - - -
30/12:00pm 26.2 NE 9 13 1022.9 - 0.0 - Partly cloudy 10 - - - -
30/11:30am 25.8 NE 11 14 1023.3 - 0.0 - - 10 - - - -
30/11:00am 26.1 NNE 9 12 1023.9 - 0.0 - - 10 - - - -
30/10:30am 26.3 NE 9 11 1024.3 - 0.0 - - 10 - - - -
30/10:00am 25.9 NE 9 12 1024.2 - 0.0 - Partly cloudy 10 - - - -
30/09:30am 25.4 NE 9 12 1024.3 - 0.0 - Partly cloudy 10 - - - -
30/09:00am 25.3 NE 8 10 1024.2 - 0.0 - Cloudy 10 - - - -
30/08:30am 25.3 ENE 7 11 1024.1 - 0.0 - Partly cloudy 10 - - - -
30/08:00am 23.3 WSW 5 6 1024.0 - 0.0 - Partly cloudy 10 - - - -
30/07:30am 22.4 SW 5 7 1023.5 - 0.0 - Partly cloudy 10 - - - -
30/07:00am 20.8 SSW 1 3 1023.1 - 0.0 - Partly cloudy 10 - - - -
30/06:30am 20.1 WSW 5 7 1022.9 - 0.0 - Partly cloudy 10 - - - -
30/06:00am 19.8 SW 3 6 1022.5 - 0.0 - Cloudy 10 - - - -
30/05:30am 19.8 WSW 3 5 1022.7 - 0.0 - Partly cloudy 10 - - - -
30/05:00am 19.9 SSW 3 5 1022.2 - 0.0 - Partly cloudy 10 - - - -
30/04:30am 20.2 SSW 4 6 1022.1 - 0.0 - Partly cloudy 10 - - - -
30/04:00am 20.1 SW 6 8 1021.7 - 0.0 - Partly cloudy 10 - - - -
30/03:30am 19.6 SW 6 7 1021.6 - 0.0 - Partly cloudy 10 - - - -
30/03:00am 19.7 SW 4 6 1021.8 - 0.0 - Cloudy 10 - - - -
30/02:30am 19.5 WSW 3 4 1021.8 - 0.0 - Partly cloudy 10 - - - -
30/02:00am 19.4 SW 4 5 1022.0 - 0.0 - Partly cloudy 10 - - - -
30/01:30am 19.6 CALM 0 0 1022.1 - 0.0 - Partly cloudy 10 - - - -
30/01:00am 19.4 SW 3 4 1022.6 - 0.0 - Partly cloudy 10 - - - -
30/12:30am 19.2 SW 3 4 1022.7 - 0.0 - Partly cloudy 10 - - - -
30/12:00am 19.4 WSW 5 6 1023.0 - 0.0 - Partly cloudy 10 - - - -
 
Date/Time
EST
Temp

°C
Wind Pressure Rain
since 9am
mm
Weather Cloud Vis
km
Sea
Height
m
Swell
Dir
 
Speed
knots
Gust
knots
hPa Trend Height
m
Period
s
Dir
29/11:30pm 19.6 WSW 3 6 1023.0 - 0.0 - Partly cloudy 10 - - - -
29/11:00pm 19.6 WSW 3 5 1023.0 - 0.0 - Partly cloudy 10 - - - -
29/10:30pm 19.5 SW 3 5 1023.0 - 0.0 - - 10 - - - -
29/10:00pm 19.4 W 4 5 1023.2 - 0.0 - Partly cloudy 10 - - - -
29/09:30pm 19.5 WSW 5 6 1023.3 - 0.0 - - 10 - - - -
29/09:00pm 19.8 WSW 4 6 1023.4 - 0.0 - - 10 - - - -
29/08:30pm 20.4 WSW 5 7 1023.6 - 0.0 - - 10 - - - -
29/08:00pm 20.6 WSW 5 7 1023.2 - 0.0 - - 10 - - - -
29/07:30pm 22.1 NNW 5 7 1022.9 - 0.0 - - 10 - - - -
29/07:00pm 23.8 NNE 7 9 1022.7 - 0.0 - - 10 - - - -
29/06:30pm 24.1 NNE 7 9 1022.3 - 0.0 - - 10 - - - -
29/06:00pm 24.1 NNE 6 8 1022.1 - 0.0 - - 10 - - - -
29/05:30pm 24.6 NE 8 9 1021.8 - 0.0 - Partly cloudy 10 - - - -
29/05:00pm 24.7 NNE 8 10 1021.7 - 0.0 - Partly cloudy 10 - - - -
29/04:30pm 25.4 NNE 9 12 1021.3 - 0.0 - - 10 - - - -
29/04:00pm 25.7 NE 9 12 1021.2 - 0.0 - - 10 - - - -
29/03:30pm 25.3 NNE 8 10 1021.2 - 0.0 - - 10 - - - -
29/03:00pm 26.2 NNE 10 13 1021.3 - 0.0 - - 10 - - - -
29/02:30pm 26.0 NE 8 11 1021.6 - 0.0 - Cloudy 10 - - - -
29/02:00pm 27.3 NE 10 13 1021.4 - 0.0 - - 10 - - - -
29/01:30pm 26.6 NE 10 13 1021.8 - 0.0 - - 10 - - - -
29/01:00pm 26.3 NE 10 13 1022.2 - 0.0 - - 10 - - - -
29/12:30pm 26.3 NE 10 13 1022.4 - 0.0 - - 10 - - - -
29/12:00pm 26.1 NNE 9 13 1022.6 - 0.0 - - 10 - - - -
29/11:30am 26.5 NNE 9 13 1023.3 - 0.0 - - 10 - - - -
29/11:00am 26.6 NNE 9 11 1023.5 - 0.0 - - 10 - - - -
29/10:30am 26.5 NE 9 11 1023.8 - 0.0 - Partly cloudy 10 - - - -
29/10:00am 26.6 NE 9 13 1023.9 - 0.0 - Partly cloudy 10 - - - -
29/09:30am 25.5 ENE 10 13 1023.8 - 0.0 - Partly cloudy 10 - - - -
29/09:00am 26.1 NE 9 12 1023.7 - 0.0 - Cloudy 10 - - - -
29/08:30am 25.4 NE 9 11 1023.4 - 0.0 - Partly cloudy 10 - - - -
29/08:00am 22.6 W 4 7 1023.1 - 0.0 - Cloudy 10 - - - -
29/07:30am 22.0 SW 6 9 1022.9 - 0.0 - Cloudy 10 - - - -
29/07:00am 21.8 WSW 6 7 1022.3 - 0.0 - Cloudy 10 - - - -
29/06:30am 21.7 WSW 7 9 1022.0 - 0.0 - Cloudy 10 - - - -
29/06:00am 21.3 W 5 7 1021.6 - 0.0 - Cloudy 10 - - - -
29/05:30am 21.6 SSE 5 8 1021.2 - 0.0 - Partly cloudy 10 - - - -
29/05:00am 21.6 SW 3 5 1020.9 - 0.0 - Cloudy 10 - - - -
29/04:30am 21.4 WSW 7 10 1020.6 - 0.0 - Cloudy 10 - - - -
29/04:00am 21.8 CALM 0 3 1020.3 - 0.0 - Cloudy 10 - - - -
29/03:30am 21.7 SW 4 6 1020.1 - 0.0 - Partly cloudy 10 - - - -
29/03:00am 21.9 WSW 3 5 1020.2 - 0.0 - Cloudy 10 - - - -
29/02:30am 21.7 SW 3 5 1020.3 - 0.0 - Partly cloudy 10 - - - -
29/02:00am 21.8 WSW 5 6 1020.6 - 0.0 - Partly cloudy 10 - - - -
29/01:30am 22.1 WSW 5 6 1020.8 - 0.0 - Partly cloudy 10 - - - -
29/01:00am 23.0 S 4 5 1020.9 - 0.0 - Cloudy 10 - - - -
29/12:30am 23.6 E 4 7 1021.0 - 0.0 - Cloudy 10 - - - -
29/12:00am 23.3 E 6 9 1021.1 - 0.0 - Cloudy 10 - - - -
 
Date/Time
EST
Temp

°C
Wind Pressure Rain
since 9am
mm
Weather Cloud Vis
km
Sea
Height
m
Swell
Dir
 
Speed
knots
Gust
knots
hPa Trend Height
m
Period
s
Dir
28/11:30pm 22.7 S 3 5 1021.6 - 0.0 - Cloudy 10 - - - -
28/11:00pm 23.2 ESE 6 7 1021.9 - 0.0 - Partly cloudy 10 - - - -
28/10:30pm 24.1 ESE 6 9 1021.8 - 0.0 - Partly cloudy 10 - - - -
28/10:00pm 24.3 ENE 7 11 1021.7 - 0.0 - Partly cloudy 10 - - - -
28/09:30pm 24.1 E 7 9 1021.7 - 0.0 - Partly cloudy 10 - - - -
28/09:00pm 24.3 E 8 11 1021.9 - 0.0 - Cloudy 10 - - - -
28/08:30pm 24.3 ESE 7 11 1021.6 - 0.0 - Partly cloudy 10 - - - -
28/08:00pm 24.4 ESE 6 10 1021.3 - 0.0 - Partly cloudy 10 - - - -
28/07:30pm 24.5 E 7 11 1021.0 - 0.0 - Partly cloudy 10 - - - -
28/07:00pm 24.5 ESE 8 11 1020.7 - 0.0 - Partly cloudy 10 - - - -
28/06:30pm 24.6 ESE 9 12 1020.3 - 0.0 - Partly cloudy 10 - - - -
28/06:00pm 24.6 E 9 12 1020.0 - 0.0 - Cloudy 10 - - - -
28/05:30pm 24.7 ESE 8 11 1019.9 - 0.0 - Partly cloudy 10 - - - -
28/05:00pm 25.0 E 8 10 1019.9 - 0.0 - Partly cloudy 10 - - - -
28/04:30pm 25.3 E 9 13 1019.5 - 0.0 - Partly cloudy 10 - - - -
28/04:00pm 25.5 ESE 10 13 1019.6 - 0.0 - Partly cloudy 10 - - - -
28/03:30pm 26.4 E 10 13 1019.4 - 0.0 - Partly cloudy 10 - - - -
28/03:00pm 26.6 E 10 14 1019.3 - 0.0 - Partly cloudy 10 - - - -
28/02:30pm 25.9 E 10 14 1019.5 - 0.0 - Partly cloudy 10 - - - -
28/02:00pm 26.3 E 10 15 1019.7 - 0.0 - Partly cloudy 10 - - - -
28/01:30pm 27.1 ESE 10 15 1019.7 - 0.0 - Partly cloudy 10 - - - -
28/01:00pm 26.6 E 9 12 1020.1 - 0.0 - Partly cloudy 10 - - - -
28/12:30pm 27.3 E 10 14 1020.2 - 0.0 - Partly cloudy 10 - - - -
28/12:00pm 27.1 ESE 11 15 1020.6 - 0.0 - - 10 - - - -
28/11:30am 27.4 ESE 11 15 1020.9 - 0.0 - - 10 - - - -
28/11:00am 26.9 ESE 10 13 1021.3 - 0.0 - Partly cloudy 10 - - - -
28/10:30am 25.9 SSE 8 11 1021.6 - 0.0 - Partly cloudy 10 - - - -
28/10:00am 25.4 SSE 9 14 1021.6 - 0.0 - Partly cloudy 10 - - - -
28/09:30am 25.3 S 8 12 1021.6 - 0.0 - Partly cloudy 10 - - - -
28/09:00am 24.8 S 9 11 1021.5 - 0.0 - Mostly cloudy 10 - - - -
28/08:30am 24.6 S 8 12 1021.3 - 0.0 - Partly cloudy 10 - - - -
28/08:00am 23.7 S 7 12 1020.9 - 0.0 - Cloudy 10 - - - -
28/07:30am 23.1 S 4 5 1020.6 - 0.0 - Cloudy 10 - - - -
28/07:00am 22.4 S 3 4 1020.0 - 0.0 - Partly cloudy 10 - - - -
28/06:30am 20.9 S 3 4 1019.6 - 0.0 - Partly cloudy 10 - - - -
28/06:00am 20.7 S 4 5 1019.3 - 0.0 - - 10 - - - -
28/05:30am 20.9 S 3 4 1019.0 - 0.0 - Partly cloudy 10 - - - -
28/05:00am 21.0 CALM 0 0 1018.8 - 0.0 - Partly cloudy 10 - - - -
28/04:30am 21.1 S 3 4 1018.5 - 0.0 - - 10 - - - -
28/04:00am 21.3 S 4 5 1018.2 - 0.0 - - 10 - - - -
28/03:30am 21.6 S 4 4 1018.2 - 0.0 - - 10 - - - -
28/03:00am 21.7 S 3 4 1018.1 - 0.0 - Mostly clear 10 - - - -
28/02:30am 21.6 SSW 4 6 1018.2 - 0.0 - - 10 - - - -
28/02:00am 22.2 CALM 0 0 1018.1 - 0.0 - Partly cloudy 10 - - - -
28/01:30am 22.3 SSW 3 4 1018.4 - 0.0 - Partly cloudy 10 - - - -
28/01:00am 22.7 SSW 3 5 1018.5 - 0.0 - Partly cloudy 10 - - - -
28/12:30am 22.8 SSW 4 6 1018.6 - 0.0 - Partly cloudy 10 - - - -

Other Formats:

Comma delimited format used in spreadsheet applications
http://www.bom.gov.au/fwo/IDQ60701/IDQ60701.94592.axf

JavaScript Object Notation format (JSON) in row-major order
http://www.bom.gov.au/fwo/IDQ60701/IDQ60701.94592.json